sensor_id;sensor_type;location;lat;lon;timestamp;temperature;humidity
55004;DHT22;40900;52.710;6.438;2023-02-04T00:01:23;6.40;99.90
55004;DHT22;40900;52.710;6.438;2023-02-04T00:03:49;6.50;99.90
55004;DHT22;40900;52.710;6.438;2023-02-04T00:06:16;6.40;99.90
55004;DHT22;40900;52.710;6.438;2023-02-04T00:08:42;6.40;99.90
55004;DHT22;40900;52.710;6.438;2023-02-04T00:11:08;6.40;99.90
55004;DHT22;40900;52.710;6.438;2023-02-04T00:13:33;6.40;99.90
55004;DHT22;40900;52.710;6.438;2023-02-04T00:15:59;6.40;99.90
55004;DHT22;40900;52.710;6.438;2023-02-04T00:18:25;6.50;99.90
55004;DHT22;40900;52.710;6.438;2023-02-04T00:20:51;6.40;99.90
55004;DHT22;40900;52.710;6.438;2023-02-04T00:23:16;6.50;99.90
55004;DHT22;40900;52.710;6.438;2023-02-04T00:25:42;6.50;99.90
55004;DHT22;40900;52.710;6.438;2023-02-04T00:28:08;6.50;99.90
55004;DHT22;40900;52.710;6.438;2023-02-04T00:30:33;6.50;99.90
55004;DHT22;40900;52.710;6.438;2023-02-04T00:32:59;6.50;99.90
55004;DHT22;40900;52.710;6.438;2023-02-04T00:35:25;6.50;99.90
55004;DHT22;40900;52.710;6.438;2023-02-04T00:37:51;6.50;99.90
55004;DHT22;40900;52.710;6.438;2023-02-04T00:40:17;6.50;99.90
55004;DHT22;40900;52.710;6.438;2023-02-04T00:42:42;6.50;99.90
55004;DHT22;40900;52.710;6.438;2023-02-04T00:45:09;6.50;99.90
55004;DHT22;40900;52.710;6.438;2023-02-04T00:47:34;6.50;99.90
55004;DHT22;40900;52.710;6.438;2023-02-04T00:50:00;6.50;99.90
55004;DHT22;40900;52.710;6.438;2023-02-04T00:52:26;6.50;99.90
55004;DHT22;40900;52.710;6.438;2023-02-04T00:54:52;6.50;99.90
55004;DHT22;40900;52.710;6.438;2023-02-04T00:57:18;6.50;99.90
55004;DHT22;40900;52.710;6.438;2023-02-04T00:59:44;6.50;99.90
55004;DHT22;40900;52.710;6.438;2023-02-04T01:02:09;6.50;99.90
55004;DHT22;40900;52.710;6.438;2023-02-04T01:04:35;6.40;99.90
55004;DHT22;40900;52.710;6.438;2023-02-04T01:07:01;6.40;99.90
55004;DHT22;40900;52.710;6.438;2023-02-04T01:09:27;6.40;99.90
55004;DHT22;40900;52.710;6.438;2023-02-04T01:11:52;6.40;99.90
55004;DHT22;40900;52.710;6.438;2023-02-04T01:14:18;6.40;99.90
55004;DHT22;40900;52.710;6.438;2023-02-04T01:16:44;6.40;99.90
55004;DHT22;40900;52.710;6.438;2023-02-04T01:19:10;6.40;99.90
55004;DHT22;40900;52.710;6.438;2023-02-04T01:21:36;6.30;99.90
55004;DHT22;40900;52.710;6.438;2023-02-04T01:24:02;6.30;99.90
55004;DHT22;40900;52.710;6.438;2023-02-04T01:26:27;6.30;99.90
55004;DHT22;40900;52.710;6.438;2023-02-04T01:28:53;6.30;99.90
55004;DHT22;40900;52.710;6.438;2023-02-04T01:31:19;6.30;99.90
55004;DHT22;40900;52.710;6.438;2023-02-04T01:33:44;6.40;99.90
55004;DHT22;40900;52.710;6.438;2023-02-04T01:36:10;6.40;99.90
55004;DHT22;40900;52.710;6.438;2023-02-04T01:38:36;6.40;99.90
55004;DHT22;40900;52.710;6.438;2023-02-04T01:41:03;6.30;99.90
55004;DHT22;40900;52.710;6.438;2023-02-04T01:43:29;6.40;99.90
55004;DHT22;40900;52.710;6.438;2023-02-04T01:45:55;6.30;99.90
55004;DHT22;40900;52.710;6.438;2023-02-04T01:48:21;6.30;99.90
55004;DHT22;40900;52.710;6.438;2023-02-04T01:50:49;6.40;99.90
55004;DHT22;40900;52.710;6.438;2023-02-04T01:53:22;6.30;99.90
55004;DHT22;40900;52.710;6.438;2023-02-04T01:55:48;6.40;99.90
55004;DHT22;40900;52.710;6.438;2023-02-04T01:58:14;6.40;99.90
55004;DHT22;40900;52.710;6.438;2023-02-04T02:00:40;6.40;99.90
55004;DHT22;40900;52.710;6.438;2023-02-04T02:03:06;6.40;99.90
55004;DHT22;40900;52.710;6.438;2023-02-04T02:05:40;6.30;99.90
55004;DHT22;40900;52.710;6.438;2023-02-04T02:08:07;6.40;99.90
55004;DHT22;40900;52.710;6.438;2023-02-04T02:10:35;6.40;99.90
55004;DHT22;40900;52.710;6.438;2023-02-04T02:13:03;6.40;99.90
55004;DHT22;40900;52.710;6.438;2023-02-04T02:15:29;6.40;99.90
55004;DHT22;40900;52.710;6.438;2023-02-04T02:17:55;6.50;99.90
55004;DHT22;40900;52.710;6.438;2023-02-04T02:20:23;6.40;99.90
55004;DHT22;40900;52.710;6.438;2023-02-04T02:23:20;6.40;99.90
55004;DHT22;40900;52.710;6.438;2023-02-04T02:25:49;6.40;99.90
55004;DHT22;40900;52.710;6.438;2023-02-04T02:28:17;6.40;99.90
55004;DHT22;40900;52.710;6.438;2023-02-04T02:30:45;6.40;99.90
55004;DHT22;40900;52.710;6.438;2023-02-04T02:33:15;6.40;99.90
55004;DHT22;40900;52.710;6.438;2023-02-04T02:35:43;6.40;99.90
55004;DHT22;40900;52.710;6.438;2023-02-04T02:38:10;6.40;99.90
55004;DHT22;40900;52.710;6.438;2023-02-04T02:40:37;6.50;99.90
55004;DHT22;40900;52.710;6.438;2023-02-04T02:43:04;6.50;99.90
55004;DHT22;40900;52.710;6.438;2023-02-04T02:45:31;6.50;99.90
55004;DHT22;40900;52.710;6.438;2023-02-04T02:47:59;6.50;99.90
55004;DHT22;40900;52.710;6.438;2023-02-04T02:50:27;6.50;99.90
55004;DHT22;40900;52.710;6.438;2023-02-04T02:52:54;6.50;99.90
55004;DHT22;40900;52.710;6.438;2023-02-04T02:55:23;6.50;99.90
55004;DHT22;40900;52.710;6.438;2023-02-04T02:57:50;6.50;99.90
55004;DHT22;40900;52.710;6.438;2023-02-04T03:00:21;6.50;99.90
55004;DHT22;40900;52.710;6.438;2023-02-04T03:03:16;6.50;99.90
55004;DHT22;40900;52.710;6.438;2023-02-04T03:05:44;6.50;99.90
55004;DHT22;40900;52.710;6.438;2023-02-04T03:08:12;6.50;99.90
55004;DHT22;40900;52.710;6.438;2023-02-04T03:10:38;6.50;99.90
55004;DHT22;40900;52.710;6.438;2023-02-04T03:13:04;6.50;99.90
55004;DHT22;40900;52.710;6.438;2023-02-04T03:15:30;6.50;99.90
55004;DHT22;40900;52.710;6.438;2023-02-04T03:17:57;6.60;99.90
55004;DHT22;40900;52.710;6.438;2023-02-04T03:20:24;6.60;99.90
55004;DHT22;40900;52.710;6.438;2023-02-04T03:22:51;6.60;99.90
55004;DHT22;40900;52.710;6.438;2023-02-04T03:25:17;6.50;99.90
55004;DHT22;40900;52.710;6.438;2023-02-04T03:27:43;6.50;99.90
55004;DHT22;40900;52.710;6.438;2023-02-04T03:30:09;6.50;99.90
55004;DHT22;40900;52.710;6.438;2023-02-04T03:32:35;6.50;99.90
55004;DHT22;40900;52.710;6.438;2023-02-04T03:35:00;6.50;99.90
55004;DHT22;40900;52.710;6.438;2023-02-04T03:37:26;6.50;99.90
55004;DHT22;40900;52.710;6.438;2023-02-04T03:39:52;6.50;99.90
55004;DHT22;40900;52.710;6.438;2023-02-04T03:42:17;6.50;99.90
55004;DHT22;40900;52.710;6.438;2023-02-04T03:44:43;6.50;99.90
55004;DHT22;40900;52.710;6.438;2023-02-04T03:47:09;6.40;99.90
55004;DHT22;40900;52.710;6.438;2023-02-04T03:49:35;6.40;99.90
55004;DHT22;40900;52.710;6.438;2023-02-04T03:52:02;6.40;99.90
55004;DHT22;40900;52.710;6.438;2023-02-04T03:54:27;6.40;99.90
55004;DHT22;40900;52.710;6.438;2023-02-04T03:56:53;6.40;99.90
55004;DHT22;40900;52.710;6.438;2023-02-04T03:59:19;6.40;99.90
55004;DHT22;40900;52.710;6.438;2023-02-04T04:01:44;6.40;99.90
55004;DHT22;40900;52.710;6.438;2023-02-04T04:04:10;6.40;99.90
55004;DHT22;40900;52.710;6.438;2023-02-04T04:06:36;6.30;99.90
55004;DHT22;40900;52.710;6.438;2023-02-04T04:09:02;6.30;99.90
55004;DHT22;40900;52.710;6.438;2023-02-04T04:11:29;6.30;99.90
55004;DHT22;40900;52.710;6.438;2023-02-04T04:13:55;6.30;99.90
55004;DHT22;40900;52.710;6.438;2023-02-04T04:16:21;6.30;99.90
55004;DHT22;40900;52.710;6.438;2023-02-04T04:18:46;6.30;99.90
55004;DHT22;40900;52.710;6.438;2023-02-04T04:21:12;6.30;99.90
55004;DHT22;40900;52.710;6.438;2023-02-04T04:23:38;6.30;99.90
55004;DHT22;40900;52.710;6.438;2023-02-04T04:26:03;6.30;99.90
55004;DHT22;40900;52.710;6.438;2023-02-04T04:28:29;6.30;99.90
55004;DHT22;40900;52.710;6.438;2023-02-04T04:30:55;6.20;99.90
55004;DHT22;40900;52.710;6.438;2023-02-04T04:33:21;6.20;99.90
55004;DHT22;40900;52.710;6.438;2023-02-04T04:35:46;6.20;99.90
55004;DHT22;40900;52.710;6.438;2023-02-04T04:38:12;6.20;99.90
55004;DHT22;40900;52.710;6.438;2023-02-04T04:40:38;6.30;99.90
55004;DHT22;40900;52.710;6.438;2023-02-04T04:43:03;6.20;99.90
55004;DHT22;40900;52.710;6.438;2023-02-04T04:45:29;6.20;99.90
55004;DHT22;40900;52.710;6.438;2023-02-04T04:47:55;6.20;99.90
55004;DHT22;40900;52.710;6.438;2023-02-04T04:50:22;6.20;99.90
55004;DHT22;40900;52.710;6.438;2023-02-04T04:52:47;6.20;99.90
55004;DHT22;40900;52.710;6.438;2023-02-04T04:55:13;6.20;99.90
55004;DHT22;40900;52.710;6.438;2023-02-04T04:57:39;6.20;99.90
55004;DHT22;40900;52.710;6.438;2023-02-04T05:00:06;6.20;99.90
55004;DHT22;40900;52.710;6.438;2023-02-04T05:02:32;6.20;99.90
55004;DHT22;40900;52.710;6.438;2023-02-04T05:04:57;6.20;99.90
55004;DHT22;40900;52.710;6.438;2023-02-04T05:07:23;6.20;99.90
55004;DHT22;40900;52.710;6.438;2023-02-04T05:09:49;6.20;99.90
55004;DHT22;40900;52.710;6.438;2023-02-04T05:12:15;6.20;99.90
55004;DHT22;40900;52.710;6.438;2023-02-04T05:14:40;6.30;99.90
55004;DHT22;40900;52.710;6.438;2023-02-04T05:17:06;6.20;99.90
55004;DHT22;40900;52.710;6.438;2023-02-04T05:19:32;6.30;99.90
55004;DHT22;40900;52.710;6.438;2023-02-04T05:21:57;6.30;99.90
55004;DHT22;40900;52.710;6.438;2023-02-04T05:24:26;6.30;99.90
55004;DHT22;40900;52.710;6.438;2023-02-04T05:26:52;6.30;99.90
55004;DHT22;40900;52.710;6.438;2023-02-04T05:29:17;6.30;99.90
55004;DHT22;40900;52.710;6.438;2023-02-04T05:31:43;6.20;99.90
55004;DHT22;40900;52.710;6.438;2023-02-04T05:34:09;6.30;99.90
55004;DHT22;40900;52.710;6.438;2023-02-04T05:36:34;6.20;99.90
55004;DHT22;40900;52.710;6.438;2023-02-04T05:39:00;6.30;99.90
55004;DHT22;40900;52.710;6.438;2023-02-04T05:41:26;6.20;99.90
55004;DHT22;40900;52.710;6.438;2023-02-04T05:43:51;6.20;99.90
55004;DHT22;40900;52.710;6.438;2023-02-04T05:46:17;6.20;99.90
55004;DHT22;40900;52.710;6.438;2023-02-04T05:48:43;6.20;99.90
55004;DHT22;40900;52.710;6.438;2023-02-04T05:51:09;6.20;99.90
55004;DHT22;40900;52.710;6.438;2023-02-04T05:53:35;6.20;99.90
55004;DHT22;40900;52.710;6.438;2023-02-04T05:56:00;6.20;99.90
55004;DHT22;40900;52.710;6.438;2023-02-04T05:58:26;6.20;99.90
55004;DHT22;40900;52.710;6.438;2023-02-04T06:00:58;6.20;99.90
55004;DHT22;40900;52.710;6.438;2023-02-04T06:03:25;6.20;99.90
55004;DHT22;40900;52.710;6.438;2023-02-04T06:05:51;6.20;99.90
55004;DHT22;40900;52.710;6.438;2023-02-04T06:08:17;6.20;99.90
55004;DHT22;40900;52.710;6.438;2023-02-04T06:10:42;6.20;99.90
55004;DHT22;40900;52.710;6.438;2023-02-04T06:13:08;6.20;99.90
55004;DHT22;40900;52.710;6.438;2023-02-04T06:15:34;6.20;99.90
55004;DHT22;40900;52.710;6.438;2023-02-04T06:17:59;6.20;99.90
55004;DHT22;40900;52.710;6.438;2023-02-04T06:20:25;6.20;99.90
55004;DHT22;40900;52.710;6.438;2023-02-04T06:22:51;6.20;99.90
55004;DHT22;40900;52.710;6.438;2023-02-04T06:25:21;6.20;99.90
55004;DHT22;40900;52.710;6.438;2023-02-04T06:27:48;6.20;99.90
55004;DHT22;40900;52.710;6.438;2023-02-04T06:30:14;6.20;99.90
55004;DHT22;40900;52.710;6.438;2023-02-04T06:32:40;6.10;99.90
55004;DHT22;40900;52.710;6.438;2023-02-04T06:35:07;6.10;99.90
55004;DHT22;40900;52.710;6.438;2023-02-04T06:37:33;6.10;99.90
55004;DHT22;40900;52.710;6.438;2023-02-04T06:39:59;6.10;99.90
55004;DHT22;40900;52.710;6.438;2023-02-04T06:42:25;6.10;99.90
55004;DHT22;40900;52.710;6.438;2023-02-04T06:44:51;6.00;99.90
55004;DHT22;40900;52.710;6.438;2023-02-04T06:47:17;6.00;99.90
55004;DHT22;40900;52.710;6.438;2023-02-04T06:49:42;6.00;99.90
55004;DHT22;40900;52.710;6.438;2023-02-04T06:52:08;6.10;99.90
55004;DHT22;40900;52.710;6.438;2023-02-04T06:54:34;6.10;99.90
55004;DHT22;40900;52.710;6.438;2023-02-04T06:57:00;6.10;99.90
55004;DHT22;40900;52.710;6.438;2023-02-04T06:59:38;6.10;99.90
55004;DHT22;40900;52.710;6.438;2023-02-04T07:02:05;6.10;99.90
55004;DHT22;40900;52.710;6.438;2023-02-04T07:04:32;6.10;99.90
55004;DHT22;40900;52.710;6.438;2023-02-04T07:06:57;6.10;99.90
55004;DHT22;40900;52.710;6.438;2023-02-04T07:09:23;6.10;99.90
55004;DHT22;40900;52.710;6.438;2023-02-04T07:11:49;6.10;99.90
55004;DHT22;40900;52.710;6.438;2023-02-04T07:14:15;6.00;99.90
55004;DHT22;40900;52.710;6.438;2023-02-04T07:16:41;6.10;99.90
55004;DHT22;40900;52.710;6.438;2023-02-04T07:19:06;6.00;99.90
55004;DHT22;40900;52.710;6.438;2023-02-04T07:21:32;6.10;99.90
55004;DHT22;40900;52.710;6.438;2023-02-04T07:23:58;6.00;99.90
55004;DHT22;40900;52.710;6.438;2023-02-04T07:26:23;6.00;99.90
55004;DHT22;40900;52.710;6.438;2023-02-04T07:28:49;6.00;99.90
55004;DHT22;40900;52.710;6.438;2023-02-04T07:31:15;6.00;99.90
55004;DHT22;40900;52.710;6.438;2023-02-04T07:33:41;6.00;99.90
55004;DHT22;40900;52.710;6.438;2023-02-04T07:36:06;6.00;99.90
55004;DHT22;40900;52.710;6.438;2023-02-04T07:38:32;6.00;99.90
55004;DHT22;40900;52.710;6.438;2023-02-04T07:40:58;6.00;99.90
55004;DHT22;40900;52.710;6.438;2023-02-04T07:43:24;6.00;99.90
55004;DHT22;40900;52.710;6.438;2023-02-04T07:45:49;6.00;99.90
55004;DHT22;40900;52.710;6.438;2023-02-04T07:48:15;6.00;99.90
55004;DHT22;40900;52.710;6.438;2023-02-04T07:50:41;6.00;99.90
55004;DHT22;40900;52.710;6.438;2023-02-04T07:53:07;6.10;99.90
55004;DHT22;40900;52.710;6.438;2023-02-04T07:55:33;6.10;99.90
55004;DHT22;40900;52.710;6.438;2023-02-04T07:57:59;6.10;99.90
55004;DHT22;40900;52.710;6.438;2023-02-04T08:00:24;6.10;99.90
55004;DHT22;40900;52.710;6.438;2023-02-04T08:02:50;6.10;99.90
55004;DHT22;40900;52.710;6.438;2023-02-04T08:05:16;6.20;99.90
55004;DHT22;40900;52.710;6.438;2023-02-04T08:07:42;6.20;99.90
55004;DHT22;40900;52.710;6.438;2023-02-04T08:10:09;6.20;99.90
55004;DHT22;40900;52.710;6.438;2023-02-04T08:12:35;6.20;99.90
55004;DHT22;40900;52.710;6.438;2023-02-04T08:15:01;6.20;99.90
55004;DHT22;40900;52.710;6.438;2023-02-04T08:17:28;6.20;99.90
55004;DHT22;40900;52.710;6.438;2023-02-04T08:19:53;6.20;99.90
55004;DHT22;40900;52.710;6.438;2023-02-04T08:22:19;6.20;99.90
55004;DHT22;40900;52.710;6.438;2023-02-04T08:24:45;6.20;99.90
55004;DHT22;40900;52.710;6.438;2023-02-04T08:27:10;6.20;99.90
55004;DHT22;40900;52.710;6.438;2023-02-04T08:29:36;6.20;99.90
55004;DHT22;40900;52.710;6.438;2023-02-04T08:32:02;6.20;99.90
55004;DHT22;40900;52.710;6.438;2023-02-04T08:34:29;6.20;99.90
55004;DHT22;40900;52.710;6.438;2023-02-04T08:36:55;6.30;99.90
55004;DHT22;40900;52.710;6.438;2023-02-04T08:39:20;6.30;99.90
55004;DHT22;40900;52.710;6.438;2023-02-04T08:41:46;6.30;99.90
55004;DHT22;40900;52.710;6.438;2023-02-04T08:44:14;6.30;99.90
55004;DHT22;40900;52.710;6.438;2023-02-04T08:46:39;6.30;99.90
55004;DHT22;40900;52.710;6.438;2023-02-04T08:49:05;6.40;99.90
55004;DHT22;40900;52.710;6.438;2023-02-04T08:51:31;6.40;99.90
55004;DHT22;40900;52.710;6.438;2023-02-04T08:53:57;6.40;99.90
55004;DHT22;40900;52.710;6.438;2023-02-04T08:56:23;6.40;99.90
55004;DHT22;40900;52.710;6.438;2023-02-04T08:58:48;6.50;99.90
55004;DHT22;40900;52.710;6.438;2023-02-04T09:01:14;6.50;99.90
55004;DHT22;40900;52.710;6.438;2023-02-04T09:03:40;6.50;99.90
55004;DHT22;40900;52.710;6.438;2023-02-04T09:06:06;6.60;99.90
55004;DHT22;40900;52.710;6.438;2023-02-04T09:08:33;6.60;99.90
55004;DHT22;40900;52.710;6.438;2023-02-04T09:10:59;6.60;99.90
55004;DHT22;40900;52.710;6.438;2023-02-04T09:13:24;6.70;99.90
55004;DHT22;40900;52.710;6.438;2023-02-04T09:15:50;6.70;99.90
55004;DHT22;40900;52.710;6.438;2023-02-04T09:18:19;6.80;99.90
55004;DHT22;40900;52.710;6.438;2023-02-04T09:20:47;6.80;99.90
55004;DHT22;40900;52.710;6.438;2023-02-04T09:23:14;6.80;99.90
55004;DHT22;40900;52.710;6.438;2023-02-04T09:25:44;6.90;99.90
55004;DHT22;40900;52.710;6.438;2023-02-04T09:28:11;7.00;99.90
55004;DHT22;40900;52.710;6.438;2023-02-04T09:30:43;7.00;99.90
55004;DHT22;40900;52.710;6.438;2023-02-04T09:33:11;7.10;99.90
55004;DHT22;40900;52.710;6.438;2023-02-04T09:35:37;7.10;99.90
55004;DHT22;40900;52.710;6.438;2023-02-04T09:38:03;7.20;99.90
55004;DHT22;40900;52.710;6.438;2023-02-04T09:40:32;7.20;99.90
55004;DHT22;40900;52.710;6.438;2023-02-04T09:42:59;7.30;99.90
55004;DHT22;40900;52.710;6.438;2023-02-04T09:45:29;7.40;99.90
55004;DHT22;40900;52.710;6.438;2023-02-04T09:47:59;7.40;99.90
55004;DHT22;40900;52.710;6.438;2023-02-04T09:50:28;7.50;99.90
55004;DHT22;40900;52.710;6.438;2023-02-04T09:52:58;7.60;99.90
55004;DHT22;40900;52.710;6.438;2023-02-04T09:55:31;7.70;99.90
55004;DHT22;40900;52.710;6.438;2023-02-04T09:57:57;7.90;99.90
55004;DHT22;40900;52.710;6.438;2023-02-04T10:00:27;8.10;99.90
55004;DHT22;40900;52.710;6.438;2023-02-04T10:02:54;8.40;99.90
55004;DHT22;40900;52.710;6.438;2023-02-04T10:05:30;8.60;99.90
55004;DHT22;40900;52.710;6.438;2023-02-04T10:07:57;9.10;99.90
55004;DHT22;40900;52.710;6.438;2023-02-04T10:10:24;9.90;99.90
55004;DHT22;40900;52.710;6.438;2023-02-04T10:12:54;10.50;99.90
55004;DHT22;40900;52.710;6.438;2023-02-04T10:15:21;11.50;99.90
55004;DHT22;40900;52.710;6.438;2023-02-04T10:17:52;11.90;99.90
55004;DHT22;40900;52.710;6.438;2023-02-04T10:20:23;12.50;99.90
55004;DHT22;40900;52.710;6.438;2023-02-04T10:22:53;13.00;99.90
55004;DHT22;40900;52.710;6.438;2023-02-04T10:25:22;13.40;99.90
55004;DHT22;40900;52.710;6.438;2023-02-04T10:27:52;14.00;99.90
55004;DHT22;40900;52.710;6.438;2023-02-04T10:30:27;14.20;99.90
55004;DHT22;40900;52.710;6.438;2023-02-04T10:32:55;13.90;99.90
55004;DHT22;40900;52.710;6.438;2023-02-04T10:35:21;14.90;99.90
55004;DHT22;40900;52.710;6.438;2023-02-04T10:38:00;15.50;99.90
55004;DHT22;40900;52.710;6.438;2023-02-04T10:40:34;15.60;99.90
55004;DHT22;40900;52.710;6.438;2023-02-04T10:43:12;16.40;99.90
55004;DHT22;40900;52.710;6.438;2023-02-04T10:45:44;16.70;99.90
55004;DHT22;40900;52.710;6.438;2023-02-04T10:48:18;17.00;99.90
55004;DHT22;40900;52.710;6.438;2023-02-04T10:50:45;17.30;99.90
55004;DHT22;40900;52.710;6.438;2023-02-04T10:53:18;17.20;99.90
55004;DHT22;40900;52.710;6.438;2023-02-04T10:56:03;17.80;99.90
55004;DHT22;40900;52.710;6.438;2023-02-04T10:58:30;18.00;99.90
55004;DHT22;40900;52.710;6.438;2023-02-04T11:00:57;18.60;99.30
55004;DHT22;40900;52.710;6.438;2023-02-04T11:03:25;18.60;98.00
55004;DHT22;40900;52.710;6.438;2023-02-04T11:05:52;18.90;98.10
55004;DHT22;40900;52.710;6.438;2023-02-04T11:08:32;18.70;97.80
55004;DHT22;40900;52.710;6.438;2023-02-04T11:11:00;19.00;96.40
55004;DHT22;40900;52.710;6.438;2023-02-04T11:18:55;19.00;97.40
55004;DHT22;40900;52.710;6.438;2023-02-04T11:21:40;19.30;95.60
55004;DHT22;40900;52.710;6.438;2023-02-04T11:37:16;19.40;95.20
55004;DHT22;40900;52.710;6.438;2023-02-04T11:39:47;18.20;95.20
55004;DHT22;40900;52.710;6.438;2023-02-04T11:42:18;17.00;96.80
55004;DHT22;40900;52.710;6.438;2023-02-04T11:44:49;16.30;97.20
55004;DHT22;40900;52.710;6.438;2023-02-04T11:47:15;15.30;98.20
55004;DHT22;40900;52.710;6.438;2023-02-04T11:49:40;14.70;99.80
55004;DHT22;40900;52.710;6.438;2023-02-04T11:52:11;14.20;99.90
55004;DHT22;40900;52.710;6.438;2023-02-04T11:54:38;13.80;99.90
55004;DHT22;40900;52.710;6.438;2023-02-04T11:57:04;13.20;99.90
55004;DHT22;40900;52.710;6.438;2023-02-04T11:59:30;13.10;99.90
55004;DHT22;40900;52.710;6.438;2023-02-04T12:02:16;12.90;99.90
55004;DHT22;40900;52.710;6.438;2023-02-04T12:04:55;12.70;99.90
55004;DHT22;40900;52.710;6.438;2023-02-04T12:07:24;12.40;99.90
55004;DHT22;40900;52.710;6.438;2023-02-04T12:09:50;12.40;99.90
55004;DHT22;40900;52.710;6.438;2023-02-04T12:12:29;12.20;99.90
55004;DHT22;40900;52.710;6.438;2023-02-04T12:14:57;12.30;99.90
55004;DHT22;40900;52.710;6.438;2023-02-04T12:17:25;11.90;99.90
55004;DHT22;40900;52.710;6.438;2023-02-04T12:19:51;12.00;99.90
55004;DHT22;40900;52.710;6.438;2023-02-04T12:22:17;12.00;99.90
55004;DHT22;40900;52.710;6.438;2023-02-04T12:24:42;12.10;99.90
55004;DHT22;40900;52.710;6.438;2023-02-04T12:27:09;12.00;99.90
55004;DHT22;40900;52.710;6.438;2023-02-04T12:29:35;12.00;99.90
55004;DHT22;40900;52.710;6.438;2023-02-04T12:32:00;12.00;99.90
55004;DHT22;40900;52.710;6.438;2023-02-04T12:34:26;11.80;99.90
55004;DHT22;40900;52.710;6.438;2023-02-04T12:36:52;11.50;99.90
55004;DHT22;40900;52.710;6.438;2023-02-04T12:39:18;11.40;99.90
55004;DHT22;40900;52.710;6.438;2023-02-04T12:41:43;11.10;99.90
55004;DHT22;40900;52.710;6.438;2023-02-04T12:44:09;11.20;99.90
55004;DHT22;40900;52.710;6.438;2023-02-04T12:46:35;11.20;99.90
55004;DHT22;40900;52.710;6.438;2023-02-04T12:49:01;11.20;99.90
55004;DHT22;40900;52.710;6.438;2023-02-04T12:51:26;11.20;99.90
55004;DHT22;40900;52.710;6.438;2023-02-04T12:53:52;11.00;99.90
55004;DHT22;40900;52.710;6.438;2023-02-04T12:56:18;11.00;99.90
55004;DHT22;40900;52.710;6.438;2023-02-04T12:58:45;11.00;99.90
55004;DHT22;40900;52.710;6.438;2023-02-04T13:01:11;11.20;99.90
55004;DHT22;40900;52.710;6.438;2023-02-04T13:03:37;11.10;99.90
55004;DHT22;40900;52.710;6.438;2023-02-04T13:06:02;11.20;99.90
55004;DHT22;40900;52.710;6.438;2023-02-04T13:08:28;11.00;99.90
55004;DHT22;40900;52.710;6.438;2023-02-04T13:10:54;11.00;99.90
55004;DHT22;40900;52.710;6.438;2023-02-04T13:13:21;11.00;99.90
55004;DHT22;40900;52.710;6.438;2023-02-04T13:15:47;11.00;99.90
55004;DHT22;40900;52.710;6.438;2023-02-04T13:18:14;11.00;99.90
55004;DHT22;40900;52.710;6.438;2023-02-04T13:20:40;11.00;99.90
55004;DHT22;40900;52.710;6.438;2023-02-04T13:23:06;10.90;99.90
55004;DHT22;40900;52.710;6.438;2023-02-04T13:25:32;10.90;99.90
55004;DHT22;40900;52.710;6.438;2023-02-04T13:27:58;10.80;99.90
55004;DHT22;40900;52.710;6.438;2023-02-04T13:30:24;10.60;99.90
55004;DHT22;40900;52.710;6.438;2023-02-04T13:32:50;10.60;99.90
55004;DHT22;40900;52.710;6.438;2023-02-04T13:37:42;10.40;99.90
55004;DHT22;40900;52.710;6.438;2023-02-04T13:40:09;10.40;99.90
55004;DHT22;40900;52.710;6.438;2023-02-04T13:42:35;10.20;99.90
55004;DHT22;40900;52.710;6.438;2023-02-04T13:45:01;10.30;99.90
55004;DHT22;40900;52.710;6.438;2023-02-04T13:47:27;10.30;99.90
55004;DHT22;40900;52.710;6.438;2023-02-04T13:49:52;10.30;99.90
55004;DHT22;40900;52.710;6.438;2023-02-04T13:52:18;10.20;99.90
55004;DHT22;40900;52.710;6.438;2023-02-04T13:54:44;10.20;99.90
55004;DHT22;40900;52.710;6.438;2023-02-04T13:57:10;10.10;99.90
55004;DHT22;40900;52.710;6.438;2023-02-04T13:59:36;10.20;99.90
55004;DHT22;40900;52.710;6.438;2023-02-04T14:02:01;10.00;99.90
55004;DHT22;40900;52.710;6.438;2023-02-04T14:04:27;10.10;99.90
55004;DHT22;40900;52.710;6.438;2023-02-04T14:06:53;10.00;99.90
55004;DHT22;40900;52.710;6.438;2023-02-04T14:09:21;10.00;99.90
55004;DHT22;40900;52.710;6.438;2023-02-04T14:11:47;10.10;99.90
55004;DHT22;40900;52.710;6.438;2023-02-04T14:14:12;10.10;99.90
55004;DHT22;40900;52.710;6.438;2023-02-04T14:16:38;10.20;99.90
55004;DHT22;40900;52.710;6.438;2023-02-04T14:19:04;10.20;99.90
55004;DHT22;40900;52.710;6.438;2023-02-04T14:21:30;10.20;99.90
55004;DHT22;40900;52.710;6.438;2023-02-04T14:23:56;10.30;99.90
55004;DHT22;40900;52.710;6.438;2023-02-04T14:26:22;10.30;99.90
55004;DHT22;40900;52.710;6.438;2023-02-04T14:28:48;10.20;99.90
55004;DHT22;40900;52.710;6.438;2023-02-04T14:31:13;10.20;99.90
55004;DHT22;40900;52.710;6.438;2023-02-04T14:33:39;10.20;99.90
55004;DHT22;40900;52.710;6.438;2023-02-04T14:36:05;10.10;99.90
55004;DHT22;40900;52.710;6.438;2023-02-04T14:38:30;10.00;99.90
55004;DHT22;40900;52.710;6.438;2023-02-04T14:40:58;10.10;99.90
55004;DHT22;40900;52.710;6.438;2023-02-04T14:43:24;10.00;99.90
55004;DHT22;40900;52.710;6.438;2023-02-04T14:45:50;10.00;99.90
55004;DHT22;40900;52.710;6.438;2023-02-04T14:48:16;9.90;99.90
55004;DHT22;40900;52.710;6.438;2023-02-04T14:50:41;9.90;99.90
55004;DHT22;40900;52.710;6.438;2023-02-04T14:53:07;9.90;99.90
55004;DHT22;40900;52.710;6.438;2023-02-04T14:55:33;9.90;99.90
55004;DHT22;40900;52.710;6.438;2023-02-04T14:57:58;9.80;99.90
55004;DHT22;40900;52.710;6.438;2023-02-04T15:00:24;9.80;99.90
55004;DHT22;40900;52.710;6.438;2023-02-04T15:02:50;9.80;99.90
55004;DHT22;40900;52.710;6.438;2023-02-04T15:05:16;9.80;99.90
55004;DHT22;40900;52.710;6.438;2023-02-04T15:07:42;9.70;99.90
55004;DHT22;40900;52.710;6.438;2023-02-04T15:10:09;9.70;99.90
55004;DHT22;40900;52.710;6.438;2023-02-04T15:12:35;9.70;99.90
55004;DHT22;40900;52.710;6.438;2023-02-04T15:15:00;9.60;99.90
55004;DHT22;40900;52.710;6.438;2023-02-04T15:17:26;9.60;99.90
55004;DHT22;40900;52.710;6.438;2023-02-04T15:19:52;9.60;99.90
55004;DHT22;40900;52.710;6.438;2023-02-04T15:22:18;9.60;99.90
55004;DHT22;40900;52.710;6.438;2023-02-04T15:24:43;9.60;99.90
55004;DHT22;40900;52.710;6.438;2023-02-04T15:27:11;9.50;99.90
55004;DHT22;40900;52.710;6.438;2023-02-04T15:29:36;9.50;99.90
55004;DHT22;40900;52.710;6.438;2023-02-04T15:32:02;9.50;99.90
55004;DHT22;40900;52.710;6.438;2023-02-04T15:34:28;9.50;99.90
55004;DHT22;40900;52.710;6.438;2023-02-04T15:36:54;9.50;99.90
55004;DHT22;40900;52.710;6.438;2023-02-04T15:39:20;9.40;99.90
55004;DHT22;40900;52.710;6.438;2023-02-04T15:41:45;9.30;99.90
55004;DHT22;40900;52.710;6.438;2023-02-04T15:44:11;9.30;99.90
55004;DHT22;40900;52.710;6.438;2023-02-04T15:46:37;9.10;99.90
55004;DHT22;40900;52.710;6.438;2023-02-04T15:49:03;9.10;99.90
55004;DHT22;40900;52.710;6.438;2023-02-04T15:51:28;9.00;99.90
55004;DHT22;40900;52.710;6.438;2023-02-04T15:53:54;8.90;99.90
55004;DHT22;40900;52.710;6.438;2023-02-04T15:56:20;9.00;99.90
55004;DHT22;40900;52.710;6.438;2023-02-04T15:58:46;8.90;99.90
55004;DHT22;40900;52.710;6.438;2023-02-04T16:01:11;8.90;99.90